Time,TemperatureF,DewpointF,PressureIn,WindDirection,WindDirectionDegrees,WindSpeedMPH,WindSpeedGustMPH,Humidity,HourlyPrecipIn,Conditions,Clouds,dailyrainin,SoftwareType,DateUTC
2013-11-04 00:00:00,32.5,32.3,30.13,SE,135,0.0,-999.0,99,-99.99,,,0.00,Acu-Link.com,2013-11-04 05:00:00,
2013-11-04 00:15:00,32.4,32.2,30.13,South,180,0.0,-999.0,99,-99.99,,,0.00,Acu-Link.com,2013-11-04 05:15:00,
2013-11-04 00:30:00,32.4,32.2,30.14,SSE,157,0.0,-999.0,99,-99.99,,,0.00,Acu-Link.com,2013-11-04 05:30:00,
2013-11-04 00:45:00,32.0,31.8,30.14,NE,45,0.0,-999.0,99,-99.99,,,0.00,Acu-Link.com,2013-11-04 05:45:00,
2013-11-04 01:00:00,31.6,31.4,30.15,SSE,157,0.0,-999.0,99,-99.99,,,0.00,Acu-Link.com,2013-11-04 06:00:00,
2013-11-04 01:15:00,31.8,31.6,30.15,SSE,157,0.0,-999.0,99,-99.99,,,0.00,Acu-Link.com,2013-11-04 06:15:00,
2013-11-04 01:30:00,31.3,31.1,30.15,East,90,0.0,-999.0,99,-99.99,,,0.00,Acu-Link.com,2013-11-04 06:30:00,
2013-11-04 01:46:00,31.3,31.1,30.15,SE,135,0.0,-999.0,99,-99.99,,,0.00,Acu-Link.com,2013-11-04 06:46:00,
2013-11-04 02:01:00,31.5,31.3,30.15,South,180,0.0,-999.0,99,-99.99,,,0.00,Acu-Link.com,2013-11-04 07:01:00,
2013-11-04 02:16:00,31.1,30.9,30.15,SE,135,0.0,-999.0,99,-99.99,,,0.00,Acu-Link.com,2013-11-04 07:16:00,
2013-11-04 02:31:00,30.7,30.5,30.15,WNW,292,0.0,-999.0,99,-99.99,,,0.00,Acu-Link.com,2013-11-04 07:31:00,
2013-11-04 02:46:00,30.6,30.4,30.15,ENE,67,0.0,-999.0,99,-99.99,,,0.00,Acu-Link.com,2013-11-04 07:46:00,
2013-11-04 03:03:00,30.4,30.2,30.15,East,90,0.0,-999.0,99,-99.99,,,0.00,Acu-Link.com,2013-11-04 08:03:00,
2013-11-04 03:18:00,30.4,30.2,30.16,SSE,157,0.0,-999.0,99,-99.99,,,0.00,Acu-Link.com,2013-11-04 08:18:00,
2013-11-04 03:33:00,30.0,29.8,30.16,SSW,202,0.0,-999.0,99,-99.99,,,0.00,Acu-Link.com,2013-11-04 08:33:00,
2013-11-04 03:48:00,29.8,29.6,30.15,ENE,67,0.0,-999.0,99,-99.99,,,0.00,Acu-Link.com,2013-11-04 08:48:00,
2013-11-04 04:03:00,29.8,29.6,30.15,SSE,157,0.0,-999.0,99,-99.99,,,0.00,Acu-Link.com,2013-11-04 09:03:00,
2013-11-04 04:18:00,29.5,29.3,30.16,SSE,157,0.0,-999.0,99,-99.99,,,0.00,Acu-Link.com,2013-11-04 09:18:00,
2013-11-04 04:33:00,29.1,28.9,30.16,ENE,67,0.0,-999.0,99,-99.99,,,0.00,Acu-Link.com,2013-11-04 09:33:00,
2013-11-04 04:48:00,28.9,28.7,30.17,NE,45,0.0,-999.0,99,-99.99,,,0.00,Acu-Link.com,2013-11-04 09:48:00,
2013-11-04 05:04:00,29.1,28.9,30.17,West,270,0.0,-999.0,99,-99.99,,,0.00,Acu-Link.com,2013-11-04 10:04:00,
2013-11-04 05:19:00,28.8,28.6,30.17,NNE,22,0.0,-999.0,99,-99.99,,,0.00,Acu-Link.com,2013-11-04 10:19:00,
2013-11-04 05:34:00,28.8,28.6,30.18,South,180,0.0,-999.0,99,-99.99,,,0.00,Acu-Link.com,2013-11-04 10:34:00,
2013-11-04 05:49:00,28.6,28.4,30.19,South,180,0.0,-999.0,99,-99.99,,,0.00,Acu-Link.com,2013-11-04 10:49:00,
2013-11-04 06:04:00,28.4,28.2,30.18,ESE,112,0.0,-999.0,99,-99.99,,,0.00,Acu-Link.com,2013-11-04 11:04:00,
2013-11-04 06:19:00,29.5,29.3,30.19,SSW,202,0.0,-999.0,99,-99.99,,,0.00,Acu-Link.com,2013-11-04 11:19:00,
2013-11-04 06:34:00,29.7,29.5,30.18,East,90,0.0,-999.0,99,-99.99,,,0.00,Acu-Link.com,2013-11-04 11:34:00,
2013-11-04 06:49:00,29.7,29.5,30.19,SW,225,0.0,-999.0,99,-99.99,,,0.00,Acu-Link.com,2013-11-04 11:49:00,
2013-11-04 07:04:00,29.8,29.6,30.20,East,90,0.0,-999.0,99,-99.99,,,0.00,Acu-Link.com,2013-11-04 12:04:00,
2013-11-04 07:20:00,30.2,30.0,30.21,SSE,157,0.0,-999.0,99,-99.99,,,0.00,Acu-Link.com,2013-11-04 12:20:00,
2013-11-04 07:35:00,30.6,30.4,30.22,East,90,0.0,-999.0,99,-99.99,,,0.00,Acu-Link.com,2013-11-04 12:35:00,
2013-11-04 07:50:00,31.5,31.3,30.23,ESE,112,0.0,-999.0,99,-99.99,,,0.00,Acu-Link.com,2013-11-04 12:50:00,
2013-11-04 08:05:00,33.6,33.3,30.22,ESE,112,0.0,-999.0,99,-99.99,,,0.00,Acu-Link.com,2013-11-04 13:05:00,
2013-11-04 08:20:00,35.2,34.9,30.22,South,180,0.0,-999.0,99,-99.99,,,0.00,Acu-Link.com,2013-11-04 13:20:00,
2013-11-04 08:35:00,40.8,40.5,30.22,South,180,0.0,-999.0,99,-99.99,,,0.00,Acu-Link.com,2013-11-04 13:35:00,
2013-11-04 08:50:00,46.0,45.7,30.21,ESE,112,0.0,-999.0,99,-99.99,,,0.00,Acu-Link.com,2013-11-04 13:50:00,
2013-11-04 09:06:00,47.3,44.2,30.22,South,180,0.0,-999.0,89,-99.99,,,0.00,Acu-Link.com,2013-11-04 14:06:00,
2013-11-04 09:21:00,48.9,45.8,30.22,SSE,157,0.0,-999.0,89,-99.99,,,0.00,Acu-Link.com,2013-11-04 14:21:00,
2013-11-04 09:36:00,52.0,47.3,30.22,West,270,0.0,-999.0,84,-99.99,,,0.00,Acu-Link.com,2013-11-04 14:36:00,
2013-11-04 09:51:00,51.8,45.2,30.23,SSE,157,0.0,-999.0,78,-99.99,,,0.00,Acu-Link.com,2013-11-04 14:51:00,
2013-11-04 10:06:00,54.0,45.9,30.23,WNW,292,4.7,-999.0,74,-99.99,,,0.00,Acu-Link.com,2013-11-04 15:06:00,
2013-11-04 10:21:00,56.1,44.5,30.24,NNW,337,4.2,-999.0,65,-99.99,,,0.00,Acu-Link.com,2013-11-04 15:21:00,
2013-11-04 10:36:00,56.1,42.4,30.24,NW,315,2.7,-999.0,60,-99.99,,,0.00,Acu-Link.com,2013-11-04 15:36:00,
2013-11-04 10:51:00,59.0,41.9,30.24,ENE,67,1.7,-999.0,53,-99.99,,,0.00,Acu-Link.com,2013-11-04 15:51:00,
2013-11-04 11:06:00,59.4,42.7,30.24,SSW,202,2.7,-999.0,54,-99.99,,,0.00,Acu-Link.com,2013-11-04 16:06:00,
2013-11-04 11:22:00,59.4,42.3,30.24,SSW,202,1.1,-999.0,53,-99.99,,,0.00,Acu-Link.com,2013-11-04 16:22:00,
2013-11-04 11:37:00,60.1,41.4,30.24,West,270,2.7,-999.0,50,-99.99,,,0.00,Acu-Link.com,2013-11-04 16:37:00,
2013-11-04 11:52:00,60.8,41.0,30.23,NE,45,4.2,-999.0,48,-99.99,,,0.00,Acu-Link.com,2013-11-04 16:52:00,
2013-11-04 12:07:00,62.4,41.9,30.23,West,270,2.2,-999.0,47,-99.99,,,0.00,Acu-Link.com,2013-11-04 17:07:00,
2013-11-04 12:22:00,63.7,42.5,30.22,NW,315,4.7,-999.0,46,-99.99,,,0.00,Acu-Link.com,2013-11-04 17:22:00,
2013-11-04 12:37:00,64.0,42.2,30.21,West,270,4.2,-999.0,45,-99.99,,,0.00,Acu-Link.com,2013-11-04 17:37:00,
2013-11-04 12:52:00,64.6,41.6,30.20,East,90,2.2,-999.0,43,-99.99,,,0.00,Acu-Link.com,2013-11-04 17:52:00,
2013-11-04 13:07:00,65.1,43.2,30.19,South,180,5.3,-999.0,45,-99.99,,,0.00,Acu-Link.com,2013-11-04 18:07:00,
2013-11-04 13:22:00,66.2,42.4,30.18,South,180,4.2,-999.0,42,-99.99,,,0.00,Acu-Link.com,2013-11-04 18:22:00,
2013-11-04 13:38:00,65.5,41.8,30.18,SW,225,2.2,-999.0,42,-99.99,,,0.00,Acu-Link.com,2013-11-04 18:38:00,
2013-11-04 13:53:00,64.9,41.3,30.19,NW,315,3.2,-999.0,42,-99.99,,,0.00,Acu-Link.com,2013-11-04 18:53:00,
2013-11-04 14:08:00,66.6,41.5,30.18,North,0,1.7,-999.0,40,-99.99,,,0.00,Acu-Link.com,2013-11-04 19:08:00,
2013-11-04 14:23:00,67.3,43.4,30.18,South,180,1.7,-999.0,42,-99.99,,,0.00,Acu-Link.com,2013-11-04 19:23:00,
2013-11-04 14:38:00,66.7,42.2,30.18,WNW,292,2.2,-999.0,41,-99.99,,,0.00,Acu-Link.com,2013-11-04 19:38:00,
2013-11-04 14:53:00,65.7,42.0,30.18,NE,45,2.2,-999.0,42,-99.99,,,0.00,Acu-Link.com,2013-11-04 19:53:00,
2013-11-04 15:08:00,66.6,41.5,30.17,South,180,4.7,-999.0,40,-99.99,,,0.00,Acu-Link.com,2013-11-04 20:08:00,
2013-11-04 15:23:00,67.1,42.6,30.17,SSW,202,4.7,-999.0,41,-99.99,,,0.00,Acu-Link.com,2013-11-04 20:23:00,
2013-11-04 15:38:00,66.4,41.3,30.16,South,180,1.7,-999.0,40,-99.99,,,0.00,Acu-Link.com,2013-11-04 20:38:00,
2013-11-04 15:54:00,67.3,42.1,30.16,WSW,247,2.2,-999.0,40,-99.99,,,0.00,Acu-Link.com,2013-11-04 20:54:00,
2013-11-04 16:09:00,64.9,40.6,30.16,SE,135,0.0,-999.0,41,-99.99,,,0.00,Acu-Link.com,2013-11-04 21:09:00,
2013-11-04 16:24:00,64.8,41.2,30.15,West,270,2.7,-999.0,42,-99.99,,,0.00,Acu-Link.com,2013-11-04 21:24:00,
2013-11-04 16:39:00,64.8,40.5,30.15,SSW,202,2.7,-999.0,41,-99.99,,,0.00,Acu-Link.com,2013-11-04 21:39:00,
2013-11-04 16:54:00,62.8,40.6,30.16,SW,225,2.7,-999.0,44,-99.99,,,0.00,Acu-Link.com,2013-11-04 21:54:00,
2013-11-04 17:09:00,61.0,40.1,30.16,SSE,157,3.2,-999.0,46,-99.99,,,0.00,Acu-Link.com,2013-11-04 22:09:00,
2013-11-04 17:24:00,59.2,40.1,30.16,SE,135,1.7,-999.0,49,-99.99,,,0.00,Acu-Link.com,2013-11-04 22:24:00,
2013-11-04 17:39:00,57.6,40.1,30.15,East,90,0.0,-999.0,52,-99.99,,,0.00,Acu-Link.com,2013-11-04 22:39:00,
2013-11-04 17:55:00,55.6,40.6,30.16,SE,135,0.0,-999.0,57,-99.99,,,0.00,Acu-Link.com,2013-11-04 22:55:00,
2013-11-04 18:10:00,53.6,40.1,30.17,South,180,0.0,-999.0,60,-99.99,,,0.00,Acu-Link.com,2013-11-04 23:10:00,
2013-11-04 18:25:00,51.8,40.4,30.17,NE,45,0.0,-999.0,65,-99.99,,,0.00,Acu-Link.com,2013-11-04 23:25:00,
2013-11-04 18:40:00,49.6,40.9,30.18,WSW,247,0.0,-999.0,72,-99.99,,,0.00,Acu-Link.com,2013-11-04 23:40:00,
2013-11-04 18:55:00,47.8,40.6,30.19,ESE,112,0.0,-999.0,76,-99.99,,,0.00,Acu-Link.com,2013-11-04 23:55:00,
2013-11-04 19:10:00,46.2,39.7,30.19,SSE,157,0.0,-999.0,78,-99.99,,,0.00,Acu-Link.com,2013-11-05 00:10:00,
2013-11-04 19:25:00,45.0,40.5,30.20,SSE,157,0.0,-999.0,84,-99.99,,,0.00,Acu-Link.com,2013-11-05 00:25:00,
2013-11-04 19:40:00,43.5,39.6,30.20,ESE,112,0.0,-999.0,86,-99.99,,,0.00,Acu-Link.com,2013-11-05 00:40:00,
2013-11-04 19:56:00,42.3,39.3,30.21,SE,135,0.0,-999.0,89,-99.99,,,0.00,Acu-Link.com,2013-11-05 00:56:00,
2013-11-04 20:11:00,41.2,39.3,30.20,SSW,202,0.0,-999.0,93,-99.99,,,0.00,Acu-Link.com,2013-11-05 01:11:00,
2013-11-04 20:26:00,40.8,40.0,30.20,South,180,0.0,-999.0,97,-99.99,,,0.00,Acu-Link.com,2013-11-05 01:26:00,
2013-11-04 20:41:00,39.9,39.4,30.21,SSE,157,0.0,-999.0,98,-99.99,,,0.00,Acu-Link.com,2013-11-05 01:41:00,
2013-11-04 20:56:00,39.2,38.7,30.21,SSE,157,0.0,-999.0,98,-99.99,,,0.00,Acu-Link.com,2013-11-05 01:56:00,
2013-11-04 21:11:00,38.5,38.2,30.21,SSE,157,0.0,-999.0,99,-99.99,,,0.00,Acu-Link.com,2013-11-05 02:11:00,
2013-11-04 21:27:00,37.9,37.4,30.23,SSE,157,0.0,-999.0,98,-99.99,,,0.00,Acu-Link.com,2013-11-05 02:27:00,
2013-11-04 21:42:00,37.9,37.6,30.22,ENE,67,0.0,-999.0,99,-99.99,,,0.00,Acu-Link.com,2013-11-05 02:42:00,
2013-11-04 21:57:00,37.4,37.1,30.23,ENE,67,0.0,-999.0,99,-99.99,,,0.00,Acu-Link.com,2013-11-05 02:57:00,
2013-11-04 22:12:00,37.2,36.9,30.22,ENE,67,0.0,-999.0,99,-99.99,,,0.00,Acu-Link.com,2013-11-05 03:12:00,
2013-11-04 22:27:00,37.9,37.6,30.21,ENE,67,0.0,-999.0,99,-99.99,,,0.00,Acu-Link.com,2013-11-05 03:27:00,
2013-11-04 22:42:00,37.8,37.5,30.23,ESE,112,0.0,-999.0,99,-99.99,,,0.00,Acu-Link.com,2013-11-05 03:42:00,
2013-11-04 22:57:00,38.1,37.8,30.22,SSE,157,0.0,-999.0,99,-99.99,,,0.00,Acu-Link.com,2013-11-05 03:57:00,
2013-11-04 23:12:00,38.3,38.0,30.23,East,90,0.0,-999.0,99,-99.99,,,0.00,Acu-Link.com,2013-11-05 04:12:00,
2013-11-04 23:27:00,38.5,38.2,30.23,ENE,67,0.0,-999.0,99,-99.99,,,0.00,Acu-Link.com,2013-11-05 04:27:00,
2013-11-04 23:43:00,38.8,38.5,30.23,East,90,0.0,-999.0,99,-99.99,,,0.00,Acu-Link.com,2013-11-05 04:43:00,
2013-11-04 23:58:00,39.4,39.1,30.23,WNW,292,0.0,-999.0,99,-99.99,,,0.00,Acu-Link.com,2013-11-05 04:58:00,